createdAt,value
2019-02-23T00:00:02.857Z,679.87
2019-02-23T00:02:31.271Z,574.33
2019-02-23T00:07:53.192Z,466.37
2019-02-23T00:10:21.683Z,347.33
2019-02-23T00:12:50.089Z,285.83
2019-02-23T00:15:18.535Z,208.23
2019-02-23T00:17:46.937Z,117.17
2019-02-23T00:20:15.493Z,58.03
2019-02-23T00:22:43.910Z,23.70
2019-02-23T00:25:12.351Z,11.90
2019-02-23T00:27:40.748Z,10.60
2019-02-23T00:30:09.148Z,5.80
2019-02-23T00:32:37.571Z,5.23
2019-02-23T00:35:05.971Z,5.00
2019-02-23T00:37:34.376Z,4.80
2019-02-23T00:40:02.769Z,4.43
2019-02-23T00:42:31.163Z,4.07
2019-02-23T00:44:59.553Z,5.47
2019-02-23T00:47:27.946Z,3.87
2019-02-23T00:49:56.342Z,4.07
2019-02-23T00:52:24.732Z,4.00
2019-02-23T00:54:53.141Z,4.60
2019-02-23T00:57:21.563Z,5.03
2019-02-23T00:59:49.966Z,3.67
2019-02-23T01:02:18.359Z,3.90
2019-02-23T01:04:46.778Z,3.53
2019-02-23T01:07:15.175Z,3.93
2019-02-23T01:09:43.612Z,4.30
2019-02-23T01:12:12.075Z,3.60
2019-02-23T01:14:40.498Z,4.23
2019-02-23T01:17:08.884Z,4.37
2019-02-23T01:19:47.420Z,3.87
2019-02-23T01:22:07.418Z,3.20
2019-02-23T01:24:35.889Z,4.47
2019-02-23T01:27:04.278Z,3.50
2019-02-23T01:29:32.732Z,3.70
2019-02-23T01:32:01.146Z,4.27
2019-02-23T01:34:29.564Z,3.97
2019-02-23T01:36:57.950Z,3.77
2019-02-23T01:39:26.467Z,5.23
2019-02-23T01:41:54.858Z,4.37
2019-02-23T01:44:23.281Z,3.20
2019-02-23T01:46:51.737Z,3.50
2019-02-23T01:49:20.150Z,4.10
2019-02-23T01:51:48.538Z,3.60
2019-02-23T01:54:16.978Z,4.13
2019-02-23T01:56:45.377Z,3.10
2019-02-23T01:59:13.896Z,5.03
2019-02-23T02:01:42.290Z,3.57
2019-02-23T02:04:10.715Z,3.50
2019-02-23T02:06:39.135Z,4.37
2019-02-23T02:09:07.932Z,4.70
2019-02-23T02:11:36.321Z,4.20
2019-02-23T02:14:04.812Z,3.90
2019-02-23T02:16:33.207Z,5.03
2019-02-23T02:19:01.607Z,3.83
2019-02-23T02:21:29.999Z,4.33
2019-02-23T02:23:58.389Z,4.10
2019-02-23T02:26:26.775Z,3.57
2019-02-23T02:28:55.172Z,5.00
2019-02-23T02:31:23.575Z,4.07
2019-02-23T02:34:09.154Z,3.90
2019-02-23T02:36:37.549Z,3.83
2019-02-23T02:39:08.645Z,4.20
2019-02-23T02:41:37.043Z,6.03
2019-02-23T02:44:05.433Z,7.30
2019-02-23T02:46:33.894Z,4.17
2019-02-23T02:49:02.281Z,3.73
2019-02-23T02:51:30.683Z,3.87
2019-02-23T02:53:59.071Z,3.60
2019-02-23T02:56:27.472Z,4.13
2019-02-23T02:58:55.859Z,4.00
2019-02-23T03:01:24.259Z,3.67
2019-02-23T03:03:52.650Z,5.20
2019-02-23T03:06:21.035Z,4.00
2019-02-23T03:08:49.428Z,6.13
2019-02-23T03:11:17.872Z,4.80
2019-02-23T03:13:46.267Z,5.40
2019-02-23T03:16:14.669Z,4.13
2019-02-23T03:18:43.066Z,3.87
2019-02-23T03:21:11.460Z,3.17
2019-02-23T03:23:39.847Z,6.87
2019-02-23T03:26:08.310Z,5.37
2019-02-23T03:28:36.711Z,5.00
2019-02-23T03:31:05.130Z,4.83
2019-02-23T03:33:33.521Z,3.97
2019-02-23T03:36:02.069Z,4.43
2019-02-23T03:38:30.530Z,4.30
2019-02-23T03:40:58.928Z,3.40
2019-02-23T03:43:27.354Z,4.20
2019-02-23T03:45:55.777Z,3.70
2019-02-23T03:48:24.535Z,4.43
2019-02-23T03:50:52.924Z,3.53
2019-02-23T03:53:21.338Z,3.43
2019-02-23T03:55:49.800Z,3.57
2019-02-23T03:58:18.186Z,4.27
2019-02-23T04:00:46.605Z,3.87
2019-02-23T04:03:14.989Z,4.90
2019-02-23T04:05:43.416Z,3.40
2019-02-23T04:08:11.869Z,4.07
2019-02-23T04:10:40.307Z,6.27
2019-02-23T04:13:08.708Z,3.27
2019-02-23T04:15:37.405Z,3.53
2019-02-23T04:18:05.907Z,4.20
2019-02-23T04:20:34.332Z,4.33
2019-02-23T04:23:02.728Z,4.93
2019-02-23T04:25:31.160Z,3.30
2019-02-23T04:27:59.548Z,5.70
2019-02-23T04:30:27.996Z,5.73
2019-02-23T04:32:56.393Z,3.17
2019-02-23T04:35:24.830Z,2.97
2019-02-23T04:37:53.219Z,4.50
2019-02-23T04:40:21.693Z,4.30
2019-02-23T04:42:50.092Z,5.10
2019-02-23T04:45:18.517Z,2.93
2019-02-23T04:47:47.078Z,4.37
2019-02-23T04:50:15.495Z,5.77
2019-02-23T04:52:43.952Z,3.90
2019-02-23T04:55:12.418Z,3.83
2019-02-23T04:57:40.806Z,4.70
2019-02-23T05:00:12.655Z,3.93
2019-02-23T05:02:41.199Z,3.60
2019-02-23T05:05:09.978Z,5.47
2019-02-23T05:07:38.371Z,3.70
2019-02-23T05:10:08.441Z,3.37
2019-02-23T05:12:36.862Z,4.13
2019-02-23T05:15:07.530Z,3.43
2019-02-23T05:17:35.918Z,3.33
2019-02-23T05:20:05.070Z,3.00
2019-02-23T05:22:33.463Z,5.00
2019-02-23T05:25:01.861Z,4.47
2019-02-23T05:27:30.249Z,6.80
2019-02-23T05:29:58.640Z,4.30
2019-02-23T05:32:27.036Z,3.80
2019-02-23T05:34:55.417Z,4.57
2019-02-23T05:37:23.972Z,5.13
2019-02-23T05:39:52.369Z,8.00
2019-02-23T05:42:20.773Z,4.43
2019-02-23T05:44:49.166Z,5.53
2019-02-23T05:47:17.567Z,4.37
2019-02-23T05:49:45.964Z,4.97
2019-02-23T05:52:14.358Z,5.37
2019-02-23T05:54:42.774Z,4.67
2019-02-23T05:57:11.168Z,5.17
2019-02-23T05:59:39.558Z,6.03
2019-02-23T06:02:07.950Z,4.33
2019-02-23T06:04:36.338Z,5.80
2019-02-23T06:07:04.803Z,5.07
2019-02-23T06:09:33.192Z,5.13
2019-02-23T06:12:01.606Z,4.27
2019-02-23T06:14:30.016Z,4.90
2019-02-23T06:16:58.383Z,5.83
2019-02-23T06:19:26.781Z,4.07
2019-02-23T06:21:55.180Z,5.27
2019-02-23T06:24:23.572Z,5.93
2019-02-23T06:26:51.988Z,6.40
2019-02-23T06:29:20.381Z,5.90
2019-02-23T06:31:48.780Z,5.33
2019-02-23T06:34:17.240Z,5.97
2019-02-23T06:36:45.599Z,5.27
2019-02-23T06:39:14.061Z,6.40
2019-02-23T06:41:42.456Z,6.30
2019-02-23T06:44:10.855Z,6.20
2019-02-23T06:46:39.255Z,6.07
2019-02-23T06:49:07.639Z,6.77
2019-02-23T06:51:36.070Z,5.53
2019-02-23T06:54:05.448Z,6.10
2019-02-23T06:56:33.930Z,6.13
2019-02-23T06:59:02.370Z,6.67
2019-02-23T07:01:30.790Z,5.60
2019-02-23T07:03:59.224Z,8.33
2019-02-23T07:06:27.659Z,6.57
2019-02-23T07:08:56.054Z,8.83
2019-02-23T07:11:24.485Z,6.97
2019-02-23T07:13:52.892Z,7.13
2019-02-23T07:16:21.284Z,8.70
2019-02-23T07:18:49.680Z,5.60
2019-02-23T07:21:18.111Z,8.27
2019-02-23T07:23:46.529Z,6.90
2019-02-23T07:26:14.971Z,6.30
2019-02-23T07:28:43.363Z,7.27
2019-02-23T07:31:11.791Z,6.70
2019-02-23T07:33:40.194Z,12.80
2019-02-23T07:36:08.684Z,9.73
2019-02-23T07:38:37.078Z,9.07
2019-02-23T07:41:05.509Z,5.57
2019-02-23T07:43:34.005Z,7.37
2019-02-23T07:46:02.426Z,7.77
2019-02-23T07:48:30.822Z,5.87
2019-02-23T07:50:59.215Z,5.33
2019-02-23T07:53:27.619Z,5.20
2019-02-23T07:55:56.096Z,6.73
2019-02-23T07:58:24.488Z,4.70
2019-02-23T08:00:52.878Z,6.40
2019-02-23T08:03:21.271Z,7.10
2019-02-23T08:05:49.663Z,6.13
2019-02-23T08:08:18.057Z,5.67
2019-02-23T08:10:46.447Z,6.93
2019-02-23T08:13:14.843Z,7.33
2019-02-23T08:15:43.239Z,6.17
2019-02-23T08:18:12.330Z,6.27
2019-02-23T08:20:40.730Z,9.13
2019-02-23T08:23:09.161Z,7.00
2019-02-23T08:25:37.567Z,5.17
2019-02-23T08:28:06.160Z,4.10
2019-02-23T08:30:34.555Z,7.80
2019-02-23T08:33:03.045Z,8.87
2019-02-23T08:35:31.445Z,9.93
2019-02-23T08:37:59.905Z,14.70
2019-02-23T08:40:28.303Z,12.97
2019-02-23T08:42:56.698Z,12.07
2019-02-23T08:45:25.105Z,9.77
2019-02-23T08:47:53.522Z,11.60
2019-02-23T08:50:22.101Z,7.90
2019-02-23T08:52:50.583Z,13.33
2019-02-23T08:55:19.093Z,12.90
2019-02-23T08:57:47.505Z,11.37
2019-02-23T09:00:19.453Z,9.13
2019-02-23T09:02:47.889Z,12.10
2019-02-23T09:05:16.284Z,13.43
2019-02-23T09:07:46.282Z,12.78
2019-02-23T09:10:15.214Z,10.10
2019-02-23T09:12:43.613Z,11.87
2019-02-23T09:15:12.278Z,12.00
2019-02-23T09:17:40.682Z,13.27
2019-02-23T09:20:13.237Z,13.00
2019-02-23T09:22:41.638Z,11.73
2019-02-23T09:25:11.183Z,10.23
2019-02-23T09:27:39.588Z,10.03
2019-02-23T09:30:12.643Z,9.53
2019-02-23T09:32:41.048Z,10.20
2019-02-23T09:35:11.152Z,8.13
2019-02-23T09:37:41.194Z,10.33
2019-02-23T09:40:20.461Z,11.97
2019-02-23T09:42:48.863Z,11.07
2019-02-23T09:45:17.272Z,7.07
2019-02-23T09:47:45.698Z,13.63
2019-02-23T09:50:14.101Z,10.40
2019-02-23T09:52:42.508Z,7.20
2019-02-23T09:55:10.911Z,9.80
2019-02-23T09:57:39.335Z,9.37
2019-02-23T10:00:12.727Z,9.60
2019-02-23T10:02:41.163Z,11.57
2019-02-23T10:05:09.978Z,12.93
2019-02-23T10:07:38.409Z,8.93
2019-02-23T10:10:09.534Z,11.13
2019-02-23T10:12:38.010Z,11.10
2019-02-23T10:15:08.649Z,13.47
2019-02-23T10:17:37.075Z,12.47
2019-02-23T10:20:14.077Z,11.30
2019-02-23T10:22:42.486Z,10.10
2019-02-23T10:25:10.878Z,11.33
2019-02-23T10:27:39.312Z,9.47
2019-02-23T10:30:13.672Z,10.23
2019-02-23T10:32:42.090Z,13.00
2019-02-23T10:35:12.119Z,11.87
2019-02-23T10:37:40.645Z,13.67
2019-02-23T10:40:11.232Z,12.47
2019-02-23T10:42:39.658Z,11.83
2019-02-23T10:45:12.786Z,13.70
2019-02-23T10:47:41.222Z,14.23
2019-02-23T10:50:17.001Z,10.63
2019-02-23T10:52:45.386Z,11.27
2019-02-23T10:55:14.918Z,11.93
2019-02-23T10:57:43.319Z,10.47
2019-02-23T11:00:18.594Z,13.97
2019-02-23T11:02:47.061Z,11.00
2019-02-23T11:05:15.792Z,9.90
2019-02-23T11:07:45.493Z,9.77
2019-02-23T11:10:13.951Z,9.17
2019-02-23T11:12:42.382Z,8.93
2019-02-23T11:15:12.910Z,11.37
2019-02-23T11:17:41.341Z,9.63
2019-02-23T11:20:10.887Z,9.97
2019-02-23T11:22:39.350Z,9.40
2019-02-23T11:25:10.174Z,8.70
2019-02-23T11:27:38.596Z,9.80
2019-02-23T11:30:10.345Z,10.47
2019-02-23T11:32:38.773Z,9.13
2019-02-23T11:35:09.140Z,9.60
2019-02-23T11:37:37.555Z,9.57
2019-02-23T11:40:11.125Z,9.57
2019-02-23T11:42:41.121Z,8.97
2019-02-23T11:45:10.856Z,5.77
2019-02-23T11:47:39.295Z,8.13
2019-02-23T11:50:11.679Z,9.90
2019-02-23T11:52:40.091Z,7.13
2019-02-23T11:55:08.494Z,8.80
2019-02-23T11:57:36.976Z,6.47
2019-02-23T12:00:08.269Z,7.97
2019-02-23T12:02:36.687Z,6.57
2019-02-23T12:05:05.151Z,7.97
2019-02-23T12:07:33.589Z,8.93
2019-02-23T12:10:01.989Z,7.43
2019-02-23T12:12:30.407Z,4.67
2019-02-23T12:14:58.788Z,6.20
2019-02-23T12:17:27.180Z,8.90
2019-02-23T12:19:55.593Z,5.37
2019-02-23T12:22:24.024Z,7.60
2019-02-23T12:24:52.418Z,5.13
2019-02-23T12:27:20.810Z,4.47
2019-02-23T12:29:49.213Z,10.00
2019-02-23T12:32:17.610Z,5.43
2019-02-23T12:34:46.007Z,5.87
2019-02-23T12:37:14.408Z,8.93
2019-02-23T12:39:43.880Z,5.60
2019-02-23T12:42:12.273Z,6.23
2019-02-23T12:44:40.793Z,5.03
2019-02-23T12:47:09.208Z,5.50
2019-02-23T12:49:37.644Z,7.53
2019-02-23T12:52:06.038Z,6.00
2019-02-23T12:54:34.451Z,5.70
2019-02-23T12:57:02.853Z,6.97
2019-02-23T12:59:31.274Z,9.63
2019-02-23T13:01:59.663Z,5.13
2019-02-23T13:04:28.070Z,5.73
2019-02-23T13:06:56.497Z,7.00
2019-02-23T13:09:27.401Z,5.33
2019-02-23T13:12:23.243Z,6.03
2019-02-23T13:15:03.926Z,7.90
2019-02-23T13:17:38.843Z,9.03
2019-02-23T13:20:22.505Z,11.93
2019-02-23T13:23:06.219Z,6.87
2019-02-23T13:25:55.782Z,10.37
2019-02-23T13:28:45.471Z,6.63
2019-02-23T13:31:23.319Z,5.20
2019-02-23T13:34:00.834Z,5.50
2019-02-23T13:36:38.712Z,7.13
2019-02-23T13:39:28.636Z,6.60
2019-02-23T13:42:21.402Z,5.80
2019-02-23T13:45:09.948Z,5.10
2019-02-23T13:47:59.747Z,6.33
2019-02-23T13:50:34.463Z,6.50
2019-02-23T13:53:15.132Z,5.70
2019-02-23T13:55:49.480Z,4.40
2019-02-23T13:58:24.153Z,5.33
2019-02-23T14:01:04.585Z,5.20
2019-02-23T14:03:57.717Z,5.10
2019-02-23T14:06:38.386Z,8.87
2019-02-23T14:09:42.033Z,5.27
2019-02-23T14:12:13.712Z,5.30
2019-02-23T14:15:03.395Z,8.00
2019-02-23T14:17:37.943Z,4.10
2019-02-23T14:20:24.557Z,6.03
2019-02-23T14:23:08.392Z,4.67
2019-02-23T14:25:45.810Z,4.80
2019-02-23T14:28:17.496Z,5.73
2019-02-23T14:31:01.268Z,6.83
2019-02-23T14:34:01.807Z,4.20
2019-02-23T14:37:08.332Z,7.57
2019-02-23T14:39:58.193Z,21.23
2019-02-23T14:43:01.715Z,10.33
2019-02-23T14:46:00.491Z,7.23
2019-02-23T14:48:57.940Z,6.77
2019-02-23T14:51:51.909Z,6.53
2019-02-23T14:54:26.760Z,9.73
2019-02-23T14:57:19.816Z,6.13
2019-02-23T15:00:03.548Z,6.90
2019-02-23T15:02:43.869Z,5.90
2019-02-23T15:05:27.480Z,6.47
2019-02-23T15:07:59.132Z,6.23
2019-02-23T15:10:53.160Z,6.67
2019-02-23T15:13:47.569Z,6.17
2019-02-23T15:16:31.027Z,5.93
2019-02-23T15:19:36.178Z,7.23
2019-02-23T15:22:17.053Z,6.17
2019-02-23T15:25:23.546Z,5.57
2019-02-23T15:28:30.322Z,6.17
2019-02-23T15:30:59.077Z,4.97
2019-02-23T15:33:51.905Z,5.83
2019-02-23T15:36:29.637Z,5.97
2019-02-23T15:39:27.221Z,5.20
2019-02-23T15:42:24.113Z,5.87
2019-02-23T15:45:01.333Z,5.37
2019-02-23T15:47:58.968Z,4.87
2019-02-23T15:50:27.461Z,6.27
2019-02-23T15:52:55.944Z,5.87
2019-02-23T15:55:26.523Z,4.73
2019-02-23T15:57:54.642Z,6.63
2019-02-23T16:00:23.163Z,6.20
2019-02-23T16:02:51.557Z,6.17
2019-02-23T16:05:21.674Z,6.20
2019-02-23T16:07:50.091Z,8.13
2019-02-23T16:10:18.488Z,7.47
2019-02-23T16:12:46.872Z,7.47
2019-02-23T16:15:15.270Z,6.23
2019-02-23T16:17:43.684Z,6.43
2019-02-23T16:20:12.069Z,7.87
2019-02-23T16:22:40.278Z,6.67
2019-02-23T16:25:08.679Z,5.73
2019-02-23T16:27:37.146Z,6.03
2019-02-23T16:30:08.450Z,7.07
2019-02-23T16:32:36.845Z,8.23
2019-02-23T16:35:07.059Z,14.77
2019-02-23T16:37:35.470Z,19.00
2019-02-23T16:40:03.948Z,21.10
2019-02-23T16:42:32.346Z,20.47
2019-02-23T16:45:00.751Z,20.13
2019-02-23T16:47:30.723Z,20.53
2019-02-23T16:49:59.237Z,27.35
2019-02-23T16:52:27.645Z,25.23
2019-02-23T16:54:56.096Z,27.40
2019-02-23T16:57:24.534Z,32.23
2019-02-23T16:59:53.056Z,29.97
2019-02-23T17:02:21.471Z,30.43
2019-02-23T17:04:54.053Z,32.63
2019-02-23T17:07:21.359Z,24.40
2019-02-23T17:09:49.786Z,29.40
2019-02-23T17:12:18.185Z,27.80
2019-02-23T17:14:46.624Z,30.10
2019-02-23T17:17:15.053Z,29.10
2019-02-23T17:19:43.470Z,31.30
2019-02-23T17:25:07.642Z,32.67
2019-02-23T17:27:36.662Z,37.90
2019-02-23T17:30:07.260Z,33.23
2019-02-23T17:32:35.739Z,32.77
2019-02-23T17:35:05.496Z,35.63
2019-02-23T17:37:33.898Z,31.27
2019-02-23T17:40:02.343Z,31.10
2019-02-23T17:42:30.807Z,33.27
2019-02-23T17:44:59.225Z,31.07
2019-02-23T17:47:27.708Z,36.40
2019-02-23T17:49:56.284Z,27.10
2019-02-23T17:52:24.817Z,33.07
2019-02-23T17:54:54.486Z,36.53
2019-02-23T17:57:22.923Z,29.53
2019-02-23T17:59:52.388Z,27.73
2019-02-23T18:02:20.796Z,26.97
2019-02-23T18:04:49.263Z,32.40
2019-02-23T18:07:17.664Z,29.30
2019-02-23T18:09:46.099Z,31.50
2019-02-23T18:12:14.595Z,28.87
2019-02-23T18:14:43.057Z,27.53
2019-02-23T18:17:11.447Z,29.20
2019-02-23T18:19:39.847Z,30.33
2019-02-23T18:22:08.414Z,26.30
2019-02-23T18:24:36.971Z,26.87
2019-02-23T18:27:08.511Z,25.07
2019-02-23T18:29:37.455Z,26.73
2019-02-23T18:32:06.115Z,25.93
2019-02-23T18:34:34.535Z,27.07
2019-02-23T18:37:04.030Z,24.20
2019-02-23T18:39:32.607Z,28.13
2019-02-23T18:42:01.132Z,25.53
2019-02-23T18:44:29.608Z,23.67
2019-02-23T18:46:58.051Z,27.33
2019-02-23T18:49:26.493Z,24.10
2019-02-23T18:51:55.048Z,25.53
2019-02-23T18:54:23.469Z,26.20
2019-02-23T18:56:51.907Z,26.47
2019-02-23T18:59:20.307Z,24.63
2019-02-23T19:01:48.760Z,23.13
2019-02-23T19:04:17.155Z,24.47
2019-02-23T19:06:45.567Z,24.93
2019-02-23T19:09:13.964Z,24.80
2019-02-23T19:11:42.371Z,24.33
2019-02-23T19:14:10.761Z,24.70
2019-02-23T19:16:39.347Z,25.47
2019-02-23T19:19:07.794Z,30.70
2019-02-23T19:21:36.271Z,27.40
2019-02-23T19:24:04.676Z,25.17
2019-02-23T19:26:38.242Z,27.77
2019-02-23T19:29:03.288Z,24.40
2019-02-23T19:31:31.703Z,25.53
2019-02-23T19:34:00.109Z,24.47
2019-02-23T19:36:28.624Z,27.60
2019-02-23T19:38:57.211Z,25.57
2019-02-23T19:41:25.610Z,22.00
2019-02-23T19:43:54.017Z,25.47
2019-02-23T19:46:22.782Z,23.57
2019-02-23T19:48:51.196Z,25.83
2019-02-23T19:51:19.595Z,23.97
2019-02-23T19:53:48.511Z,26.37
2019-02-23T19:56:16.910Z,29.57
2019-02-23T19:58:45.312Z,29.13
2019-02-23T20:01:13.726Z,29.50
2019-02-23T20:03:42.200Z,31.43
2019-02-23T20:06:11.196Z,40.63
2019-02-23T20:08:39.594Z,36.57
2019-02-23T20:11:08.126Z,31.57
2019-02-23T20:13:36.513Z,30.87
2019-02-23T20:16:04.951Z,30.13
2019-02-23T20:18:33.353Z,32.73
2019-02-23T20:21:01.798Z,30.30
2019-02-23T20:23:30.194Z,34.43
2019-02-23T20:25:58.635Z,38.20
2019-02-23T20:28:27.114Z,30.60
2019-02-23T20:30:56.605Z,31.17
2019-02-23T20:35:59.607Z,31.57
2019-02-23T20:38:28.003Z,29.90
2019-02-23T20:40:56.448Z,33.57
2019-02-23T20:43:24.847Z,31.00
2019-02-23T20:45:53.268Z,33.40
2019-02-23T20:48:21.686Z,28.03
2019-02-23T20:50:50.093Z,32.30
2019-02-23T20:53:18.504Z,26.30
2019-02-23T20:55:46.905Z,29.20
2019-02-23T20:58:15.309Z,26.30
2019-02-23T21:00:43.718Z,26.27
2019-02-23T21:03:12.115Z,24.30
2019-02-23T21:05:40.519Z,23.20
2019-02-23T21:08:08.995Z,25.70
2019-02-23T21:10:37.480Z,26.10
2019-02-23T21:13:05.885Z,24.90
2019-02-23T21:15:34.291Z,21.70
2019-02-23T21:18:02.692Z,23.03
2019-02-23T21:20:31.129Z,24.07
2019-02-23T21:22:59.541Z,21.30
2019-02-23T21:25:27.940Z,21.57
2019-02-23T21:27:56.410Z,20.47
2019-02-23T21:30:24.891Z,21.97
2019-02-23T21:32:53.336Z,19.67
2019-02-23T21:35:21.762Z,22.70
2019-02-23T21:37:50.195Z,21.47
2019-02-23T21:40:18.592Z,23.13
2019-02-23T21:42:47.028Z,21.13
2019-02-23T21:45:15.448Z,26.67
2019-02-23T21:47:43.869Z,24.10
2019-02-23T21:50:12.274Z,21.97
2019-02-23T21:52:40.814Z,19.90
2019-02-23T21:55:09.284Z,23.43
2019-02-23T21:57:37.716Z,24.73
2019-02-23T22:00:08.374Z,21.60
2019-02-23T22:02:36.791Z,19.63
2019-02-23T22:05:11.984Z,22.83
2019-02-23T22:07:36.150Z,20.97
2019-02-23T22:10:07.433Z,20.07
2019-02-23T22:12:35.866Z,18.00
2019-02-23T22:15:05.510Z,20.23
2019-02-23T22:17:33.911Z,19.33
2019-02-23T22:20:02.317Z,20.33
2019-02-23T22:22:30.743Z,17.87
2019-02-23T22:25:01.900Z,18.03
2019-02-23T22:27:31.560Z,21.20
2019-02-23T22:30:00.494Z,17.80
2019-02-23T22:32:29.024Z,23.70
2019-02-23T22:34:57.482Z,21.50
2019-02-23T22:37:26.027Z,29.50
2019-02-23T22:39:54.432Z,23.10
2019-02-23T22:42:22.826Z,24.97
2019-02-23T22:44:51.301Z,21.10
2019-02-23T22:47:19.706Z,23.77
2019-02-23T22:49:48.097Z,22.63
2019-02-23T22:52:16.505Z,25.73
2019-02-23T22:54:44.937Z,24.93
2019-02-23T22:57:13.378Z,21.87
2019-02-23T22:59:41.778Z,22.30
2019-02-23T23:02:10.217Z,23.10
2019-02-23T23:04:38.688Z,24.90
2019-02-23T23:07:07.109Z,23.33
2019-02-23T23:09:35.510Z,24.60
2019-02-23T23:12:04.246Z,26.10
2019-02-23T23:14:32.649Z,20.50
2019-02-23T23:17:01.241Z,21.00
2019-02-23T23:19:29.644Z,21.00
2019-02-23T23:21:58.058Z,23.03
2019-02-23T23:24:26.461Z,21.07
2019-02-23T23:26:54.890Z,20.47
2019-02-23T23:29:23.290Z,20.70
2019-02-23T23:31:51.691Z,23.37
2019-02-23T23:34:20.100Z,22.43
2019-02-23T23:36:48.500Z,22.20
2019-02-23T23:39:16.907Z,21.20
2019-02-23T23:41:45.316Z,22.70
2019-02-23T23:44:13.800Z,20.23
2019-02-23T23:46:42.269Z,23.20
2019-02-23T23:49:10.682Z,20.27
2019-02-23T23:51:39.087Z,21.60
2019-02-23T23:54:07.488Z,19.07
2019-02-23T23:56:35.892Z,22.07
2019-02-23T23:59:04.300Z,22.13
